Time;durP1;ratioP1;P1;durP2;ratioP2;P2;SDS_P1;SDS_P2;PMS_P1;PMS_P2;Temp;Humidity;BMP_temperature;BMP_pressure;BME280_temperature;BME280_humidity;BME280_pressure;Samples;Min_cycle;Max_cycle;Signal;HPM_P1;HPM_P2
2023/04/08 15:12:08;;;;;;;18.73;11.93;;;15.30;99.00;;;;;;5109392;27;20319;-60
2023/04/08 15:14:34;;;;;;;20.85;12.20;;;15.30;99.90;;;;;;5109027;28;20046;-61
2023/04/08 15:16:59;;;;;;;21.45;12.75;;;15.70;99.50;;;;;;5109218;28;20099;-60
2023/04/08 15:19:25;;;;;;;19.48;11.65;;;16.00;99.30;;;;;;5109291;28;20024;-59
2023/04/08 15:21:50;;;;;;;16.52;11.15;;;16.30;98.70;;;;;;5108792;28;20380;-60
2023/04/08 15:24:16;;;;;;;20.48;11.95;;;16.50;97.90;;;;;;5107348;28;20539;-60
2023/04/08 15:26:41;;;;;;;17.48;11.50;;;16.50;97.20;;;;;;5108783;28;20468;-56
2023/04/08 15:29:07;;;;;;;18.42;11.75;;;16.40;96.90;;;;;;5108535;28;20084;-59
2023/04/08 15:31:33;;;;;;;16.90;11.45;;;16.20;96.70;;;;;;5109317;28;20028;-59
2023/04/08 15:34:01;;;;;;;17.52;11.57;;;16.00;95.40;;;;;;5109161;28;20532;-56
2023/04/08 15:36:28;;;;;;;17.60;11.75;;;15.80;96.40;;;;;;5108655;28;20110;-58
2023/04/08 15:38:53;;;;;;;16.92;11.85;;;15.70;96.40;;;;;;5109274;28;20024;-59
2023/04/08 15:41:20;;;;;;;15.30;10.88;;;15.50;96.80;;;;;;5108965;28;20026;-60
2023/04/08 15:43:46;;;;;;;17.10;11.25;;;15.50;97.40;;;;;;5108623;28;20099;-62
2023/04/08 15:46:17;;;;;;;16.70;10.75;;;15.60;97.30;;;;;;5108763;28;20495;-58
2023/04/08 15:48:43;;;;;;;;;;;15.90;97.80;;;;;;5106983;28;20024;-58
2023/04/08 15:51:10;;;;;;;17.92;10.65;;;16.30;96.50;;;;;;5108674;28;19915;-60
2023/04/08 15:53:35;;;;;;;13.55;8.93;;;16.90;94.90;;;;;;5107925;28;20020;-59
2023/04/08 15:56:02;;;;;;;13.93;9.43;;;17.50;93.40;;;;;;5106715;28;20028;-60
2023/04/08 15:58:28;;;;;;;14.98;10.20;;;17.90;91.90;;;;;;5108775;28;20476;-59
2023/04/08 16:00:56;;;;;;;16.67;11.25;;;18.00;90.60;;;;;;5108860;28;20501;-59
2023/04/08 16:03:24;;;;;;;18.13;11.45;;;18.00;91.20;;;;;;5107764;28;20047;-59
2023/04/08 16:05:50;;;;;;;14.32;9.85;;;18.00;90.50;;;;;;5108456;28;20409;-60
2023/04/08 16:08:16;;;;;;;15.23;10.05;;;17.70;89.40;;;;;;5108587;28;20063;-58
2023/04/08 16:10:42;;;;;;;17.60;11.27;;;17.20;89.60;;;;;;5107512;28;20561;-58
2023/04/08 16:13:07;;;;;;;15.63;10.00;;;16.80;90.30;;;;;;5108247;28;20553;-58
2023/04/08 16:15:33;;;;;;;17.33;11.55;;;16.40;91.10;;;;;;5108589;28;20477;-58
2023/04/08 16:18:00;;;;;;;14.35;9.48;;;16.10;91.50;;;;;;5107406;28;20472;-58
2023/04/08 16:20:27;;;;;;;16.58;10.90;;;15.70;92.40;;;;;;5108428;28;20012;-58
2023/04/08 16:22:53;;;;;;;17.38;11.25;;;15.40;93.20;;;;;;5097391;28;20051;-57
2023/04/08 16:25:18;;;;;;;17.88;12.23;;;15.10;93.90;;;;;;5094683;28;20428;-58
2023/04/08 16:27:44;;;;;;;24.58;14.10;;;14.90;94.70;;;;;;5093219;28;20030;-57
2023/04/08 16:30:10;;;;;;;18.55;11.80;;;14.80;95.40;;;;;;5093652;28;20024;-56
2023/04/08 16:32:36;;;;;;;22.27;14.23;;;14.70;96.10;;;;;;5094588;28;20392;-55
2023/04/08 16:35:02;;;;;;;29.88;17.73;;;14.60;97.10;;;;;;5094218;28;20023;-57
2023/04/08 16:37:27;;;;;;;27.10;15.93;;;14.50;98.20;;;;;;5093807;28;20032;-56
2023/04/08 16:39:53;;;;;;;20.27;12.77;;;14.40;98.90;;;;;;5091617;28;20013;-56
2023/04/08 16:42:18;;;;;;;24.52;14.98;;;14.40;99.80;;;;;;5091520;28;20024;-57
2023/04/08 16:44:44;;;;;;;22.13;14.48;;;14.40;99.90;;;;;;5091928;28;20072;-57
2023/04/08 16:47:10;;;;;;;19.55;12.95;;;14.20;99.90;;;;;;5091836;28;20030;-57
2023/04/08 16:49:35;;;;;;;22.63;14.20;;;14.30;99.90;;;;;;5091908;28;20008;-57
2023/04/08 16:52:01;;;;;;;22.20;13.23;;;14.20;99.90;;;;;;5090759;28;20090;-58
2023/04/08 16:54:26;;;;;;;20.35;12.60;;;14.10;99.90;;;;;;5091896;28;20020;-58
2023/04/08 16:56:52;;;;;;;20.30;12.23;;;14.00;99.90;;;;;;5090730;28;20439;-58
2023/04/08 16:59:18;;;;;;;22.27;12.07;;;13.90;99.90;;;;;;5090925;28;20024;-60
2023/04/08 17:01:43;;;;;;;17.45;11.35;;;13.80;99.90;;;;;;5092027;28;20031;-58
2023/04/08 17:04:09;;;;;;;17.33;11.30;;;13.80;99.90;;;;;;5089814;28;20717;-60
2023/04/08 17:06:35;;;;;;;23.70;14.52;;;13.80;99.90;;;;;;5091366;28;20043;-58
2023/04/08 17:09:02;;;;;;;23.85;13.27;;;13.70;99.90;;;;;;5092046;28;20048;-57
2023/04/08 17:11:28;;;;;;;19.80;12.60;;;13.60;99.90;;;;;;5091425;28;20802;-56
2023/04/08 17:13:54;;;;;;;20.48;12.80;;;13.60;99.90;;;;;;5089985;28;20027;-58
2023/04/08 17:16:19;;;;;;;19.60;12.55;;;13.60;99.90;;;;;;5090917;28;20028;-57
2023/04/08 17:18:45;;;;;;;21.10;13.20;;;13.50;99.90;;;;;;5091585;28;20032;-55
2023/04/08 17:21:12;;;;;;;19.80;13.27;;;13.40;99.90;;;;;;5090650;28;20413;-58
2023/04/08 17:23:38;;;;;;;23.67;14.57;;;13.40;99.90;;;;;;5091511;28;20019;-57
2023/04/08 17:26:06;;;;;;;20.40;12.15;;;13.30;99.90;;;;;;5090546;28;20024;-56
2023/04/08 17:28:32;;;;;;;19.20;11.85;;;13.30;99.90;;;;;;5091020;28;20519;-58
2023/04/08 17:31:00;;;;;;;16.70;10.65;;;13.30;99.90;;;;;;5091182;28;20040;-57
2023/04/08 17:33:25;;;;;;;23.60;14.30;;;13.20;99.90;;;;;;5089988;28;20137;-58
2023/04/08 17:35:52;;;;;;;18.67;12.00;;;13.10;99.90;;;;;;5091036;28;20602;-57
2023/04/08 17:38:18;;;;;;;19.90;12.10;;;13.10;99.90;;;;;;5090687;28;20024;-59
2023/04/08 17:40:45;;;;;;;17.38;10.40;;;13.00;99.90;;;;;;5090522;28;20025;-58
2023/04/08 17:43:11;;;;;;;22.40;14.93;;;13.00;99.90;;;;;;5090730;28;20149;-59
2023/04/08 17:45:37;;;;;;;20.92;12.10;;;13.00;99.90;;;;;;5091078;28;20060;-58
2023/04/08 17:48:04;;;;;;;29.30;16.15;;;13.00;99.90;;;;;;5088618;28;20548;-59
2023/04/08 17:50:30;;;;;;;23.88;14.93;;;13.00;99.90;;;;;;5090501;28;20035;-57
2023/04/08 17:52:56;;;;;;;27.85;16.08;;;12.90;99.90;;;;;;5089305;28;20052;-57
2023/04/08 17:55:22;;;;;;;22.63;13.68;;;12.80;99.90;;;;;;5089900;28;20054;-56
2023/04/08 17:57:48;;;;;;;22.73;13.68;;;12.80;99.90;;;;;;5090707;28;20027;-57
2023/04/08 18:00:15;;;;;;;20.42;12.00;;;12.70;99.90;;;;;;5090523;28;20052;-57
2023/04/08 18:02:40;;;;;;;21.35;12.48;;;12.60;99.90;;;;;;5089638;28;20109;-57
2023/04/08 18:05:06;;;;;;;19.27;11.95;;;12.60;99.90;;;;;;5089094;28;20054;-57
2023/04/08 18:07:33;;;;;;;20.55;12.88;;;12.60;99.90;;;;;;5090443;28;20392;-57
2023/04/08 18:09:58;;;;;;;21.05;12.75;;;12.50;99.90;;;;;;5089624;28;20040;-60
2023/04/08 18:12:27;;;;;;;22.55;13.57;;;12.50;99.90;;;;;;5090416;28;20028;-55
2023/04/08 18:14:52;;;;;;;18.52;11.57;;;12.40;99.90;;;;;;5090010;28;20028;-55
2023/04/08 18:17:18;;;;;;;21.80;12.68;;;12.40;99.90;;;;;;5089381;28;20039;-57
2023/04/08 18:19:45;;;;;;;22.58;13.60;;;12.30;99.90;;;;;;5090233;28;20031;-56
2023/04/08 18:22:10;;;;;;;22.00;13.88;;;12.30;99.90;;;;;;5089992;28;20020;-57
2023/04/08 18:24:36;;;;;;;20.33;12.90;;;12.30;99.90;;;;;;5089608;28;20050;-57
2023/04/08 18:27:02;;;;;;;24.20;13.38;;;12.20;99.90;;;;;;5089699;28;20035;-56
2023/04/08 18:29:28;;;;;;;22.15;13.23;;;12.20;99.90;;;;;;5089401;28;20016;-57
2023/04/08 18:31:53;;;;;;;22.05;13.38;;;12.20;99.90;;;;;;5090378;28;20365;-58
2023/04/08 18:34:21;;;;;;;21.05;13.30;;;12.20;99.90;;;;;;5089822;28;20032;-58
2023/04/08 18:36:47;;;;;;;23.50;14.20;;;12.10;99.90;;;;;;5089555;28;20032;-58
2023/04/08 18:39:12;;;;;;;23.48;14.20;;;12.10;99.90;;;;;;5088122;28;20077;-57
2023/04/08 18:41:38;;;;;;;21.55;13.30;;;12.10;99.90;;;;;;5090062;28;20109;-57
2023/04/08 18:44:04;;;;;;;21.38;13.63;;;12.10;99.90;;;;;;5089328;28;20464;-56
2023/04/08 18:46:30;;;;;;;21.35;12.88;;;12.10;99.90;;;;;;5089718;28;20104;-58
2023/04/08 18:48:56;;;;;;;24.50;15.10;;;12.10;99.90;;;;;;5088659;28;20039;-58
2023/04/08 18:51:22;;;;;;;27.05;15.60;;;12.10;99.90;;;;;;5088302;28;20032;-57
2023/04/08 18:53:48;;;;;;;32.85;17.15;;;12.10;99.90;;;;;;5089963;28;20061;-56
2023/04/08 18:56:18;;;;;;;30.45;16.17;;;12.00;99.90;;;;;;5089352;28;20028;-53
2023/04/08 18:58:45;;;;;;;34.10;18.35;;;12.00;99.90;;;;;;5089218;28;20027;-55
2023/04/08 19:01:17;;;;;;;31.92;17.33;;;12.00;99.90;;;;;;5089690;28;20085;-54
2023/04/08 19:03:43;;;;;;;32.97;17.48;;;11.90;99.90;;;;;;5089384;28;20008;-57
2023/04/08 19:06:11;;;;;;;31.83;18.13;;;11.90;99.90;;;;;;5088817;28;20031;-58
2023/04/08 19:08:37;;;;;;;30.80;16.52;;;11.80;99.90;;;;;;5089754;28;20016;-58
2023/04/08 19:11:03;;;;;;;37.25;19.88;;;11.80;99.90;;;;;;5089399;28;20056;-56
2023/04/08 19:13:29;;;;;;;42.05;21.08;;;11.70;99.90;;;;;;5089176;28;20031;-59
2023/04/08 19:15:55;;;;;;;35.38;19.77;;;11.70;99.90;;;;;;5088118;28;20032;-59
2023/04/08 19:18:21;;;;;;;38.53;20.20;;;11.70;99.90;;;;;;5089234;28;20039;-55
2023/04/08 19:20:47;;;;;;;47.67;24.80;;;11.60;99.90;;;;;;5088994;28;20021;-56
2023/04/08 19:23:12;;;;;;;38.92;19.50;;;11.60;99.90;;;;;;5089441;28;20028;-57
2023/04/08 19:25:38;;;;;;;35.45;19.15;;;11.60;99.90;;;;;;5087715;28;20035;-57
2023/04/08 19:28:12;;;;;;;44.00;23.13;;;11.60;99.90;;;;;;5088826;28;20550;-56
2023/04/08 19:30:38;;;;;;;39.13;20.63;;;11.50;99.90;;;;;;5089496;28;20461;-53
2023/04/08 19:33:04;;;;;;;42.13;23.00;;;11.50;99.90;;;;;;5088624;28;20099;-56
2023/04/08 19:35:30;;;;;;;39.63;20.10;;;11.50;99.90;;;;;;5089530;28;20111;-57
2023/04/08 19:37:56;;;;;;;41.33;20.02;;;11.40;99.90;;;;;;5089534;28;20157;-56
2023/04/08 19:40:21;;;;;;;40.92;20.65;;;11.40;99.90;;;;;;5088049;28;20070;-56
2023/04/08 19:42:47;;;;;;;42.30;20.73;;;11.40;99.90;;;;;;5089477;28;20028;-57
2023/04/08 19:45:12;;;;;;;36.63;19.63;;;11.40;99.90;;;;;;5089130;28;20012;-58
2023/04/08 19:47:43;;;;;;;41.03;21.08;;;11.30;99.90;;;;;;5088855;28;20127;-58
2023/04/08 19:50:11;;;;;;;36.75;18.45;;;11.30;99.90;;;;;;5088933;28;20063;-57
2023/04/08 19:52:38;;;;;;;39.17;19.38;;;11.20;99.90;;;;;;5088898;28;20038;-56
2023/04/08 19:55:05;;;;;;;36.08;18.08;;;11.20;99.90;;;;;;5088406;28;20038;-55
2023/04/08 19:57:31;;;;;;;37.03;19.70;;;11.20;99.90;;;;;;5090618;28;20032;-56
2023/04/08 19:59:56;;;;;;;42.72;20.80;;;11.10;99.90;;;;;;5093064;28;20099;-58
2023/04/08 20:02:23;;;;;;;41.08;19.40;;;11.20;99.90;;;;;;5091998;28;20391;-57
2023/04/08 20:04:50;;;;;;;33.47;18.13;;;11.10;99.90;;;;;;5092971;28;20024;-56
2023/04/08 20:07:15;;;;;;;35.78;19.23;;;11.10;99.90;;;;;;5091175;28;20120;-57
2023/04/08 20:09:41;;;;;;;35.53;18.63;;;11.10;99.90;;;;;;5092086;28;20496;-57
2023/04/08 20:12:07;;;;;;;37.10;17.88;;;11.10;99.90;;;;;;5092526;28;20097;-55
2023/04/08 20:14:36;;;;;;;35.67;18.13;;;11.10;99.90;;;;;;5092459;28;20379;-57
2023/04/08 20:17:03;;;;;;;36.20;18.63;;;11.00;99.90;;;;;;5092073;28;20016;-57
2023/04/08 20:19:29;;;;;;;33.42;17.00;;;11.00;99.90;;;;;;5091189;28;20020;-56
2023/04/08 20:21:56;;;;;;;37.80;18.25;;;11.00;99.90;;;;;;5091893;28;20392;-57
2023/04/08 20:24:22;;;;;;;36.15;17.33;;;11.00;99.90;;;;;;5092331;28;20024;-59
2023/04/08 20:26:47;;;;;;;33.28;17.25;;;11.00;99.90;;;;;;5092318;28;20023;-58
2023/04/08 20:29:13;;;;;;;33.67;17.30;;;11.00;99.90;;;;;;5091533;28;20464;-57
2023/04/08 20:31:38;;;;;;;34.13;16.33;;;11.00;99.90;;;;;;5092445;28;20040;-57
2023/04/08 20:34:04;;;;;;;37.65;17.27;;;11.00;99.90;;;;;;5092203;28;20059;-57
2023/04/08 20:36:31;;;;;;;32.17;16.95;;;11.00;99.90;;;;;;5091872;28;20032;-57
2023/04/08 20:38:58;;;;;;;34.33;16.92;;;11.00;99.90;;;;;;5090642;28;20016;-54
